Irving North's Hourly Summary for Sunday, May 13, 2018
Hour Temp
(f)
RH
(%)
Solar Rad.
(MJ/m2)
Rainfall
(in)
Wind
(mph)
5/13/2018 12:00 AM 79 64 0 0 7.43
5/13/2018 1:00 AM 77 70 0 0 8.18
5/13/2018 2:00 AM 76 72 0 0 8.59
5/13/2018 3:00 AM 75 76 0 0 7.78
5/13/2018 4:00 AM 74 79 0 0 7.68
5/13/2018 5:00 AM 72 82 0 0 6.92
5/13/2018 6:00 AM 72 84 0.03 0 6.21
5/13/2018 7:00 AM 73 78 0.47 0 5.24
5/13/2018 8:00 AM 75 71 0.96 0 6.7
5/13/2018 9:00 AM 78 65 1.56 0 7.63
5/13/2018 10:00 AM 79 61 1.57 0 6.8
5/13/2018 11:00 AM 82 54 2.41 0 8.26
5/13/2018 12:00 PM 84 50 3.29 0 8.6
5/13/2018 1:00 PM 85 43 2.75 0 8.65
5/13/2018 2:00 PM 87 44 2.87 0 7.67
5/13/2018 3:00 PM 87 43 2.47 0 8.07
5/13/2018 4:00 PM 88 42 2.14 0 8.39
5/13/2018 5:00 PM 88 42 1.32 0 8.29
5/13/2018 6:00 PM 87 44 0.62 0 8.24
5/13/2018 7:00 PM 86 45 0.29 0 7.9
5/13/2018 8:00 PM 84 48 0.01 0 5.47
5/13/2018 9:00 PM 83 52 0 0 5.09
5/13/2018 10:00 PM 81 58 0 0 5.08
5/13/2018 11:00 PM 81 60 0 0 5.24
Data Summary 80 59 22.76 0.00 7.25